Time;durP1;ratioP1;P1;durP2;ratioP2;P2;SDS_P1;SDS_P2;PMS_P1;PMS_P2;Temp;Humidity;BMP_temperature;BMP_pressure;BME280_temperature;BME280_humidity;BME280_pressure;Samples;Min_cycle;Max_cycle;Signal;HPM_P1;HPM_P2
2021/01/03 00:02:07;;;;;;;240.57;101.72;;;;;;;-0.58;74.57;97015.34;1750179;80;25788;-83
2021/01/03 00:04:38;;;;;;;220.05;94.55;;;;;;;-0.56;74.62;97008.08;1750143;80;27506;-82
2021/01/03 00:07:05;;;;;;;203.85;85.42;;;;;;;-0.60;74.57;97009.84;1750090;80;25915;-82
2021/01/03 00:09:32;;;;;;;182.85;80.17;;;;;;;-0.68;74.65;97010.61;1750116;80;25859;-82
2021/01/03 00:12:01;;;;;;;182.65;76.77;;;;;;;-0.67;74.86;97013.61;1750161;80;25784;-85
2021/01/03 00:14:31;;;;;;;191.25;76.67;;;;;;;-0.65;74.97;97004.18;1750058;80;25711;-85
2021/01/03 00:17:01;;;;;;;178.75;71.77;;;;;;;-0.61;74.97;97004.23;1750162;80;27582;-82
2021/01/03 00:19:29;;;;;;;213.15;87.33;;;;;;;-0.57;74.99;97010.38;1750040;80;25815;-82
2021/01/03 00:21:56;;;;;;;238.50;94.47;;;;;;;-0.52;75.00;97012.09;1750163;80;25910;-84
2021/01/03 00:24:24;;;;;;;201.75;80.17;;;;;;;-0.49;74.95;97001.20;1750000;80;25744;-82
2021/01/03 00:26:52;;;;;;;207.85;82.97;;;;;;;-0.47;74.82;96996.55;1750068;80;26340;-83
2021/01/03 00:29:19;;;;;;;177.32;74.07;;;;;;;-0.47;74.72;97003.17;1750045;80;28449;-83
2021/01/03 00:31:49;;;;;;;204.95;82.08;;;;;;;-0.50;74.73;97000.86;1749983;80;25819;-86
2021/01/03 00:34:19;;;;;;;217.85;94.03;;;;;;;-0.58;74.75;97002.58;1750127;80;25333;-83
2021/01/03 00:36:46;;;;;;;239.50;99.72;;;;;;;-0.58;74.85;97006.06;1750127;80;25842;-85
2021/01/03 00:39:14;;;;;;;238.62;102.85;;;;;;;-0.54;74.85;97013.23;1750169;80;25800;-84
2021/01/03 00:41:41;;;;;;;254.50;101.67;;;;;;;-0.52;74.86;97009.45;1750104;80;27232;-83
2021/01/03 00:44:08;;;;;;;250.70;99.17;;;;;;;-0.50;74.81;96999.53;1750022;80;25760;-83
2021/01/03 00:46:36;;;;;;;235.57;94.17;;;;;;;-0.49;74.76;96993.24;1749953;80;25724;-84
2021/01/03 00:49:03;;;;;;;182.20;74.70;;;;;;;-0.51;74.68;96987.25;1750117;80;26341;-84
2021/01/03 00:51:31;;;;;;;178.53;74.65;;;;;;;-0.61;74.65;96989.16;1750080;80;25774;-82
2021/01/03 00:53:58;;;;;;;217.60;88.92;;;;;;;-0.61;74.75;96989.16;1749980;80;27571;-83
2021/01/03 00:56:26;;;;;;;202.40;85.77;;;;;;;-0.56;74.87;96989.52;1749971;80;26521;-85
2021/01/03 00:58:54;;;;;;;174.38;76.92;;;;;;;-0.56;74.74;96992.17;1750106;80;25724;-84
2021/01/03 01:01:25;;;;;;;166.97;70.67;;;;;;;-0.61;74.67;96982.53;1750090;80;26431;-84
2021/01/03 01:03:52;;;;;;;180.90;74.95;;;;;;;-0.63;74.66;96983.17;1750059;80;25827;-83
2021/01/03 01:06:20;;;;;;;181.78;73.72;;;;;;;-0.62;74.64;96976.89;1750124;80;27547;-83
2021/01/03 01:08:48;;;;;;;166.92;67.58;;;;;;;-0.64;74.60;96981.50;1749794;80;25757;-84
2021/01/03 01:11:15;;;;;;;162.12;67.97;;;;;;;-0.68;74.61;96975.32;1749774;80;25898;-83
2021/01/03 01:13:43;;;;;;;161.50;66.15;;;;;;;-0.66;74.66;96970.22;1749892;80;25529;-85
2021/01/03 01:16:11;;;;;;;165.07;69.87;;;;;;;-0.66;74.63;96971.53;1749821;80;25723;-83
2021/01/03 01:18:38;;;;;;;161.30;67.27;;;;;;;-0.63;74.71;96961.97;1749827;80;28599;-83
2021/01/03 01:21:06;;;;;;;140.28;57.00;;;;;;;-0.63;74.65;96964.61;1749711;80;26201;-85
2021/01/03 01:23:34;;;;;;;170.50;63.58;;;;;;;-0.64;74.55;96954.16;1749802;80;25751;-82
2021/01/03 01:26:02;;;;;;;162.15;60.63;;;;;;;-0.66;74.50;96960.10;1749754;80;25807;-84
2021/01/03 01:28:29;;;;;;;135.70;56.15;;;;;;;-0.69;74.47;96962.56;1749662;80;25683;-84
2021/01/03 01:30:58;;;;;;;135.18;53.23;;;;;;;-0.77;74.42;96965.14;1749743;80;27604;-84
2021/01/03 01:33:25;;;;;;;134.87;55.90;;;;;;;-0.81;74.56;96975.70;1749693;80;25791;-84
2021/01/03 01:35:53;;;;;;;140.05;56.20;;;;;;;-0.87;74.52;96977.64;1749901;80;25783;-84
2021/01/03 01:38:21;;;;;;;148.50;62.43;;;;;;;-0.91;74.65;96980.24;1771684;80;26372;-83
2021/01/03 01:40:49;;;;;;;143.82;60.03;;;;;;;-0.86;74.84;96983.28;1749972;80;25337;-84
2021/01/03 01:43:19;;;;;;;125.53;52.05;;;;;;;-0.84;74.87;96985.27;1749938;80;27567;-85
2021/01/03 01:45:48;;;;;;;109.65;45.73;;;;;;;-0.88;74.76;96974.65;1749841;80;25701;-86
2021/01/03 01:48:28;;;;;;;111.30;47.53;;;;;;;-0.90;74.79;96973.96;1749939;80;25858;-84
2021/01/03 01:51:03;;;;;;;119.35;50.25;;;;;;;-0.91;74.76;96963.02;1777142;80;25807;-83
2021/01/03 01:53:46;;;;;;;116.25;50.15;;;;;;;-0.89;74.81;96960.56;1756267;80;25755;-85
2021/01/03 01:56:28;;;;;;;123.38;50.15;;;;;;;-0.85;74.83;96951.83;1748482;80;27508;-85
2021/01/03 01:59:34;;;;;;;119.08;53.15;;;;;;;-0.84;74.78;96952.14;1735691;80;25962;-84
2021/01/03 02:02:21;;;;;;;111.28;50.05;;;;;;;-0.93;74.77;96943.78;1750362;81;25882;-84
2021/01/03 02:05:02;;;;;;;109.42;47.45;;;;;;;-0.98;74.82;96942.09;1748353;80;25779;-84
2021/01/03 02:07:38;;;;;;;119.10;49.27;;;;;;;-1.01;74.89;96939.74;1750129;80;25776;-84
2021/01/03 02:10:25;;;;;;;124.22;55.05;;;;;;;-1.02;74.95;96932.78;1749897;80;28117;-84
2021/01/03 02:13:25;;;;;;;126.15;52.03;;;;;;;-0.99;74.99;96921.88;1749820;80;26048;-83
2021/01/03 02:15:58;;;;;;;110.00;47.35;;;;;;;-0.99;74.99;96916.59;1758538;80;25726;-86
2021/01/03 02:18:26;;;;;;;102.90;43.80;;;;;;;-1.00;75.02;96914.92;1749851;80;25695;-85
2021/01/03 02:21:15;;;;;;;96.65;41.90;;;;;;;-0.98;75.16;96923.06;1749891;80;25835;-84
2021/01/03 02:24:10;;;;;;;96.12;39.60;;;;;;;-0.91;75.20;96924.59;1749901;80;28534;-84
2021/01/03 02:26:42;;;;;;;102.97;40.25;;;;;;;-0.88;75.18;96928.28;1749772;80;25393;-86
2021/01/03 02:29:14;;;;;;;91.80;38.63;;;;;;;-0.90;75.11;96928.91;1750094;80;35333;-86
2021/01/03 02:31:46;;;;;;;76.77;31.20;;;;;;;-0.94;75.07;96934.17;1750086;80;26209;-86
2021/01/03 02:34:19;;;;;;;88.00;40.25;;;;;;;-0.93;75.18;96933.19;1749894;80;26378;-85
2021/01/03 02:36:51;;;;;;;91.80;40.58;;;;;;;-0.91;75.22;96932.55;1749400;80;28677;-84
2021/01/03 02:39:42;;;;;;;85.55;38.88;;;;;;;-0.88;75.25;96938.38;1749890;80;26407;-83
2021/01/03 02:42:18;;;;;;;82.62;38.38;;;;;;;-0.83;75.21;96941.39;1749795;80;25964;-85
2021/01/03 02:44:46;;;;;;;74.58;35.75;;;;;;;-0.79;75.22;96944.58;1749837;80;25836;-84
2021/01/03 02:47:14;;;;;;;78.05;35.52;;;;;;;-0.75;75.25;96936.68;1749934;80;25764;-84
2021/01/03 02:49:42;;;;;;;70.12;33.67;;;;;;;-0.72;75.23;96927.07;1749971;80;27577;-84
2021/01/03 02:52:13;;;;;;;77.10;34.13;;;;;;;-0.67;75.25;96910.72;1749858;80;26133;-84
2021/01/03 02:54:40;;;;;;;67.30;32.95;;;;;;;-0.63;75.27;96904.97;1743430;81;26387;-83
2021/01/03 02:57:07;;;;;;;75.22;34.65;;;;;;;-0.67;75.17;96896.98;1760922;81;25706;-84
2021/01/03 02:59:34;;;;;;;68.25;31.35;;;;;;;-0.77;75.16;96889.13;1755654;81;25771;-83
2021/01/03 03:02:02;;;;;;;60.73;29.05;;;;;;;-0.82;75.28;96876.81;1744907;81;27565;-83
2021/01/03 03:04:29;;;;;;;58.68;26.45;;;;;;;-0.85;75.47;96870.52;1757848;81;25759;-83
2021/01/03 03:06:56;;;;;;;54.10;26.17;;;;;;;-0.90;75.57;96861.35;1735866;81;25926;-84
2021/01/03 03:09:24;;;;;;;65.80;29.23;;;;;;;-0.93;75.80;96860.33;1758690;81;26374;-85
2021/01/03 03:11:51;;;;;;;59.77;29.27;;;;;;;-0.94;75.89;96858.66;1739245;81;25724;-84
2021/01/03 03:14:18;;;;;;;56.50;28.15;;;;;;;-0.90;76.02;96854.73;1749947;81;28501;-85
2021/01/03 03:16:46;;;;;;;60.17;29.75;;;;;;;-0.89;76.09;96838.68;1731946;81;25698;-85
2021/01/03 03:19:14;;;;;;;68.55;33.80;;;;;;;-0.77;76.13;96852.02;1730561;81;25812;-86
2021/01/03 03:21:42;;;;;;;79.12;36.65;;;;;;;-0.76;76.04;96844.41;1757164;81;25780;-83
2021/01/03 03:24:09;;;;;;;83.00;36.70;;;;;;;-0.82;76.00;96830.93;1746024;81;25769;-84
2021/01/03 03:26:37;;;;;;;79.62;37.40;;;;;;;-0.83;76.09;96828.77;1751774;79;27499;-85
2021/01/03 03:29:04;;;;;;;78.75;36.63;;;;;;;-0.81;76.11;96832.59;1742954;81;25752;-85
2021/01/03 03:31:31;;;;;;;74.20;35.13;;;;;;;-0.81;76.08;96840.55;1760157;81;25365;-84
2021/01/03 03:33:59;;;;;;;78.28;36.17;;;;;;;-0.77;76.10;96849.86;1730687;81;26543;-85
2021/01/03 03:36:26;;;;;;;78.95;36.90;;;;;;;-0.77;76.11;96853.34;1739111;81;25827;-85
2021/01/03 03:38:53;;;;;;;86.60;39.23;;;;;;;-0.68;76.16;96848.09;1731320;81;27557;-83
2021/01/03 03:41:24;;;;;;;81.45;37.48;;;;;;;-0.66;76.14;96850.09;1730699;81;25839;-83
2021/01/03 03:43:52;;;;;;;76.20;35.38;;;;;;;-0.63;76.15;96847.98;1739284;81;25854;-83
2021/01/03 03:46:20;;;;;;;68.85;33.42;;;;;;;-0.62;76.09;96853.63;1749645;81;25833;-86
2021/01/03 03:48:47;;;;;;;75.80;36.73;;;;;;;-0.60;76.09;96858.74;1730841;81;25633;-86
2021/01/03 03:51:20;;;;;;;67.30;33.45;;;;;;;-0.54;76.04;96858.97;1752071;81;27511;-86
2021/01/03 03:53:48;;;;;;;60.43;31.30;;;;;;;-0.54;76.01;96853.67;1747412;80;26083;-84
2021/01/03 03:56:17;;;;;;;66.10;33.15;;;;;;;-0.54;75.97;96848.37;1759698;80;25763;-85
2021/01/03 03:58:45;;;;;;;67.30;30.43;;;;;;;-0.51;75.97;96848.55;1750155;80;25796;-86
2021/01/03 04:01:13;;;;;;;57.88;28.23;;;;;;;-0.58;75.87;96850.14;1750002;80;25752;-86
2021/01/03 04:03:40;;;;;;;51.48;25.62;;;;;;;-0.55;76.00;96836.09;1750129;80;27463;-84
2021/01/03 04:06:08;;;;;;;50.48;25.05;;;;;;;-0.52;76.02;96823.03;1750348;80;25824;-84
2021/01/03 04:08:37;;;;;;;61.73;29.85;;;;;;;-0.54;75.95;96821.86;1750247;80;26641;-85
2021/01/03 04:11:05;;;;;;;60.50;29.90;;;;;;;-0.60;75.94;96814.51;1750117;80;25683;-85
2021/01/03 04:13:32;;;;;;;60.15;29.00;;;;;;;-0.63;76.02;96806.89;1750142;80;25724;-86
2021/01/03 04:15:59;;;;;;;52.20;27.62;;;;;;;-0.63;76.12;96806.89;1750062;80;27580;-85
2021/01/03 04:18:27;;;;;;;55.90;28.05;;;;;;;-0.52;76.23;96795.19;1750024;80;25719;-85
2021/01/03 04:20:55;;;;;;;64.32;32.03;;;;;;;-0.47;76.18;96799.02;1750223;80;25826;-84
2021/01/03 04:23:22;;;;;;;64.82;30.68;;;;;;;-0.56;75.97;96807.92;1750148;80;26445;-85
2021/01/03 04:25:49;;;;;;;65.12;28.70;;;;;;;-0.54;75.99;96819.20;1750062;80;25870;-85
2021/01/03 04:28:17;;;;;;;58.02;28.45;;;;;;;-0.53;75.97;96823.52;1750114;80;28475;-84
2021/01/03 04:30:45;;;;;;;56.42;29.42;;;;;;;-0.56;75.90;96823.83;1749994;80;25764;-85
2021/01/03 04:33:12;;;;;;;60.85;27.98;;;;;;;-0.54;75.93;96819.20;1750033;80;25880;-84
2021/01/03 04:35:39;;;;;;;53.40;26.50;;;;;;;-0.51;76.01;96808.30;1750099;80;25709;-83
2021/01/03 04:38:07;;;;;;;53.68;25.85;;;;;;;-0.50;75.94;96799.35;1750096;80;25854;-86
2021/01/03 04:40:34;;;;;;;52.67;25.27;;;;;;;-0.51;75.87;96797.69;1750150;80;28883;-85
2021/01/03 04:43:04;;;;;;;54.65;23.83;;;;;;;-0.55;75.82;96797.66;1749991;80;26600;-85
2021/01/03 04:45:38;;;;;;;54.80;26.05;;;;;;;-0.62;75.88;96799.28;1750164;80;25749;-85
2021/01/03 04:48:26;;;;;;;55.45;26.27;;;;;;;-0.71;75.93;96800.20;1750006;80;25816;-85
2021/01/03 04:51:33;;;;;;;52.30;24.63;;;;;;;-0.71;76.08;96808.14;1750123;80;25902;-85
2021/01/03 04:54:14;;;;;;;57.73;26.33;;;;;;;-0.65;76.19;96812.84;1750025;80;27506;-85
2021/01/03 04:56:51;;;;;;;55.23;25.00;;;;;;;-0.62;76.18;96811.21;1753984;80;26075;-85
2021/01/03 04:59:45;;;;;;;51.80;24.55;;;;;;;-0.59;76.20;96816.67;1760488;80;26191;-85
2021/01/03 05:02:52;;;;;;;64.97;33.18;;;;;;;-0.55;76.23;96815.37;1749689;80;25676;-84
2021/01/03 05:05:39;;;;;;;69.05;34.65;;;;;;;-0.53;76.14;96816.89;1750331;80;25833;-86
2021/01/03 05:08:27;;;;;;;48.58;25.30;;;;;;;-0.53;76.09;96812.91;1750163;80;27506;-86
2021/01/03 05:10:59;;;;;;;58.23;26.02;;;;;;;-0.55;76.09;96810.91;1749048;80;26556;-87
2021/01/03 05:13:47;;;;;;;50.20;24.90;;;;;;;-0.55;76.14;96817.53;1724468;81;25868;-85
2021/01/03 05:16:18;;;;;;;49.18;24.87;;;;;;;-0.51;76.18;96833.48;1749516;80;26506;-86
2021/01/03 05:18:45;;;;;;;47.65;23.62;;;;;;;-0.45;76.24;96836.81;1750048;80;26378;-86
2021/01/03 05:21:13;;;;;;;49.00;24.20;;;;;;;-0.41;76.20;96837.34;1749995;80;28470;-87
2021/01/03 05:23:54;;;;;;;46.58;22.98;;;;;;;-0.41;76.14;96837.34;1749777;80;25808;-85
2021/01/03 05:26:36;;;;;;;48.83;23.27;;;;;;;-0.37;76.17;96823.63;1886462;76;34896;-84
2021/01/03 05:29:05;;;;;;;48.58;24.02;;;;;;;-0.42;76.16;96821.92;1855873;77;25721;-83
2021/01/03 05:31:33;;;;;;;47.43;24.45;;;;;;;-0.39;76.20;96821.62;1837748;77;27498;-82
2021/01/03 05:34:05;;;;;;;59.65;28.40;;;;;;;-0.41;76.15;96809.50;1829654;77;25861;-85
2021/01/03 05:36:50;;;;;;;63.48;31.55;;;;;;;-0.37;76.24;96795.78;1857204;77;28242;-84
2021/01/03 05:39:28;;;;;;;59.10;28.62;;;;;;;-0.43;76.10;96805.67;1835578;77;26388;-82
2021/01/03 05:42:21;;;;;;;62.98;31.07;;;;;;;-0.48;76.14;96813.25;1828488;77;25766;-82
2021/01/03 05:45:02;;;;;;;124.30;52.98;;;;;;;-0.48;76.26;96806.63;1823562;77;28552;-83
2021/01/03 05:47:42;;;;;;;77.53;31.03;;;;;;;-0.42;76.32;96799.39;1823621;77;25690;-82
2021/01/03 05:50:33;;;;;;;76.65;35.65;;;;;;;-0.42;76.28;96809.99;1816058;77;25839;-84
2021/01/03 05:53:11;;;;;;;84.45;36.20;;;;;;;-0.39;76.27;96811.01;1856980;77;25820;-83
2021/01/03 05:55:43;;;;;;;79.80;36.10;;;;;;;-0.33;76.26;96810.02;1856558;77;25803;-83
2021/01/03 05:58:27;;;;;;;75.25;35.58;;;;;;;-0.30;76.26;96799.11;1855568;77;28470;-84
2021/01/03 06:00:55;;;;;;;74.47;34.73;;;;;;;-0.32;76.27;96796.61;1833293;77;25824;-86
2021/01/03 06:03:29;;;;;;;66.00;31.33;;;;;;;-0.35;76.17;96804.88;1856987;77;25691;-85
2021/01/03 06:06:10;;;;;;;65.52;32.53;;;;;;;-0.41;76.20;96811.66;1852295;77;26076;-86
2021/01/03 06:08:40;;;;;;;74.35;33.88;;;;;;;-0.48;76.21;96814.58;1841959;77;25781;-85
2021/01/03 06:11:18;;;;;;;68.47;31.45;;;;;;;-0.44;76.28;96817.27;1827447;77;27485;-86
2021/01/03 06:13:53;;;;;;;75.60;36.05;;;;;;;-0.41;76.26;96816.96;1842123;77;26351;-85
2021/01/03 06:16:25;;;;;;;95.60;40.50;;;;;;;-0.42;76.21;96819.27;1825523;77;25584;-85
2021/01/03 06:19:06;;;;;;;112.20;47.95;;;;;;;-0.42;76.26;96812.64;1842666;77;26225;-85
2021/01/03 06:21:40;;;;;;;129.25;54.88;;;;;;;-0.38;76.25;96807.86;1824274;77;26267;-86
2021/01/03 06:24:24;;;;;;;122.15;54.77;;;;;;;-0.40;76.22;96801.39;1789564;78;28541;-84
2021/01/03 06:27:09;;;;;;;137.43;56.90;;;;;;;-0.34;76.25;96801.73;1797964;78;26179;-85
2021/01/03 06:29:50;;;;;;;127.85;56.95;;;;;;;-0.41;76.19;96809.00;1800589;78;26270;-86
2021/01/03 06:32:53;;;;;;;123.07;55.43;;;;;;;-0.48;76.24;96798.67;1794398;78;25723;-85
2021/01/03 06:35:30;;;;;;;;;;;;;;;-0.44;76.38;96793.41;1808152;78;25806;-84
2021/01/03 06:38:05;;;;;;;106.10;45.90;;;;;;;-0.40;76.47;96768.24;1802719;78;27493;-84
2021/01/03 06:40:40;;;;;;;123.10;48.83;;;;;;;-0.44;76.46;96773.52;1799662;78;26532;-82
2021/01/03 06:43:30;;;;;;;115.82;49.48;;;;;;;-0.50;76.42;96779.47;1751379;81;25862;-85
2021/01/03 06:46:42;;;;;;;104.20;43.98;;;;;;;-0.46;76.52;96782.12;1736446;81;25770;-83
2021/01/03 06:49:33;;;;;;;62.67;30.70;;;;;;;-0.43;76.54;96778.33;1735887;81;25889;-84
2021/01/03 06:52:08;;;;;;;85.38;41.63;;;;;;;-0.43;76.54;96771.20;1758138;80;27589;-85
2021/01/03 06:55:17;;;;;;;86.95;40.85;;;;;;;-0.42;76.49;96768.89;1761587;81;25847;-83
2021/01/03 06:58:05;;;;;;;95.40;43.15;;;;;;;-0.36;76.47;96770.89;1778068;80;25853;-85
2021/01/03 07:00:52;;;;;;;98.40;44.38;;;;;;;-0.39;76.40;96773.89;1737823;81;25817;-85
2021/01/03 07:03:33;;;;;;;122.13;52.03;;;;;;;-0.39;76.42;96767.26;1742703;80;25865;-83
2021/01/03 07:06:07;;;;;;;109.48;50.15;;;;;;;-0.41;76.42;96775.03;1757683;80;27617;-84
2021/01/03 07:08:51;;;;;;;111.17;49.27;;;;;;;-0.41;76.50;96761.27;1746443;81;26186;-85
2021/01/03 07:11:50;;;;;;;107.97;45.92;;;;;;;-0.34;76.52;96765.44;1740273;80;25706;-85
2021/01/03 07:14:28;;;;;;;94.95;43.65;;;;;;;-0.37;76.47;96754.67;1745282;80;25736;-84
2021/01/03 07:17:08;;;;;;;86.15;40.17;;;;;;;-0.31;76.54;96739.09;1762088;80;25781;-84
2021/01/03 07:19:41;;;;;;;135.05;53.00;;;;;;;-0.26;76.56;96724.88;1759144;80;27507;-82
2021/01/03 07:22:22;;;;;;;348.48;113.83;;;;;;;-0.24;76.57;96722.37;1758911;80;25736;-85
2021/01/03 07:24:58;;;;;;;142.13;54.20;;;;;;;-0.17;76.57;96729.20;1757565;80;26339;-83
2021/01/03 07:27:40;;;;;;;95.22;42.65;;;;;;;-0.17;76.51;96727.88;1781333;79;26179;-84
2021/01/03 07:30:16;;;;;;;137.80;53.87;;;;;;;-0.17;76.50;96732.69;1758665;79;26205;-83
2021/01/03 07:33:00;;;;;;;130.52;51.13;;;;;;;-0.08;76.59;96748.95;1770258;79;27553;-84
2021/01/03 07:35:36;;;;;;;134.78;52.78;;;;;;;-0.03;76.56;96751.14;1780662;79;25770;-83
2021/01/03 07:38:22;;;;;;;138.50;56.23;;;;;;;-0.05;76.45;96771.69;1795243;79;25319;-83
2021/01/03 07:41:07;;;;;;;122.28;53.38;;;;;;;-0.06;76.53;96764.72;1799307;79;25777;-84
2021/01/03 07:44:02;;;;;;;123.65;57.10;;;;;;;-0.13;76.47;96769.85;1799381;79;25774;-83
2021/01/03 07:46:55;;;;;;;128.53;58.50;;;;;;;-0.24;76.52;96771.44;1776990;79;27500;-84
2021/01/03 07:49:43;;;;;;;132.05;57.93;;;;;;;-0.18;76.75;96758.05;1795997;79;25720;-85
2021/01/03 07:52:25;;;;;;;121.30;55.60;;;;;;;-0.10;76.86;96750.11;1783686;79;25779;-85
2021/01/03 07:54:55;;;;;;;118.25;54.93;;;;;;;-0.07;76.87;96756.42;1778503;79;26209;-86
2021/01/03 07:57:26;;;;;;;138.35;64.82;;;;;;;0.01;76.97;96760.42;1798057;79;25681;-84
2021/01/03 07:59:58;;;;;;;131.90;60.15;;;;;;;0.18;77.07;96760.80;1798036;79;27498;-83
2021/01/03 08:02:34;;;;;;;145.43;65.37;;;;;;;0.32;77.00;96753.55;1783645;79;25715;-84
2021/01/03 08:05:02;;;;;;;134.40;62.35;;;;;;;0.45;76.90;96758.38;1791832;79;26319;-83
2021/01/03 08:07:30;;;;;;;125.30;59.50;;;;;;;0.60;76.81;96762.55;1793008;79;25892;-85
2021/01/03 08:10:08;;;;;;;145.68;68.95;;;;;;;0.73;76.79;96765.51;1788185;79;25838;-84
2021/01/03 08:12:40;;;;;;;109.60;53.45;;;;;;;0.88;76.77;96769.67;1781156;79;28565;-83
2021/01/03 08:15:14;;;;;;;;;;;;;;;1.04;76.81;96751.89;1771426;79;26146;-81
2021/01/03 08:17:44;;;;;;;107.90;49.95;;;;;;;1.20;76.77;96760.86;1770881;79;26271;-82
2021/01/03 08:20:26;;;;;;;125.70;56.65;;;;;;;1.31;76.69;96767.15;1790073;79;26454;-80
2021/01/03 08:22:54;;;;;;;116.88;49.67;;;;;;;1.47;76.66;96768.42;1767749;79;32653;-80
2021/01/03 08:25:27;;;;;;;111.75;50.80;;;;;;;1.66;76.49;96773.37;1766161;79;27506;-81
2021/01/03 08:28:06;;;;;;;96.60;45.63;;;;;;;1.81;76.35;96779.61;1761021;81;25685;-81
2021/01/03 08:30:37;;;;;;;91.50;43.70;;;;;;;2.00;76.27;96786.88;1738685;81;25770;-83
2021/01/03 08:33:32;;;;;;;81.08;39.20;;;;;;;2.12;76.04;96778.34;1767929;81;25742;-81
2021/01/03 08:36:22;;;;;;;82.42;37.55;;;;;;;2.20;75.86;96784.11;1769320;81;25782;-82
2021/01/03 08:38:50;;;;;;;77.08;38.15;;;;;;;2.32;75.67;96780.05;1753555;81;28452;-83
2021/01/03 08:41:22;;;;;;;75.72;37.33;;;;;;;2.44;75.51;96775.16;1764325;81;25794;-82
2021/01/03 08:43:50;;;;;;;80.42;37.90;;;;;;;2.33;75.20;96777.72;1754952;81;25747;-82
2021/01/03 08:46:31;;;;;;;94.03;46.63;;;;;;;2.29;75.22;96775.09;1738123;81;25751;-83
2021/01/03 08:49:09;;;;;;;88.33;43.80;;;;;;;2.49;75.48;96777.63;1753952;81;26002;-86
2021/01/03 08:51:37;;;;;;;96.92;47.27;;;;;;;2.71;75.41;96773.81;1742173;81;27490;-82
2021/01/03 08:54:09;;;;;;;97.82;50.48;;;;;;;2.91;75.27;96770.98;1738736;81;25750;-82
2021/01/03 08:56:51;;;;;;;103.97;50.95;;;;;;;3.03;75.06;96775.38;1764656;81;25797;-82
2021/01/03 08:59:19;;;;;;;101.20;49.42;;;;;;;3.10;74.98;96774.51;1769568;81;26011;-82
2021/01/03 09:01:47;;;;;;;113.85;53.65;;;;;;;3.16;74.84;96775.61;1757636;81;25756;-83
2021/01/03 09:04:19;;;;;;;115.42;54.88;;;;;;;3.19;74.73;96774.75;1759987;81;27481;-82
2021/01/03 09:09:32;;;;;;;121.57;58.30;;;;;;;3.32;74.52;96777.30;1815957;76;34805;-81
2021/01/03 09:12:06;;;;;;;104.70;53.40;;;;;;;3.33;74.45;96781.63;1799812;78;26352;-82
2021/01/03 09:14:39;;;;;;;96.80;50.23;;;;;;;3.41;74.42;96794.88;1799362;77;27486;-82
2021/01/03 09:17:11;;;;;;;107.30;56.95;;;;;;;3.44;74.22;96791.36;1799211;78;26291;-84
2021/01/03 09:20:08;;;;;;;129.75;63.80;;;;;;;3.43;74.01;96781.69;1791492;77;25651;-83
2021/01/03 09:22:52;;;;;;;119.45;58.38;;;;;;;3.60;74.16;96782.37;1781401;78;25793;-83
2021/01/03 09:25:35;;;;;;;119.50;57.80;;;;;;;3.67;73.64;96779.27;1784690;77;25764;-83
2021/01/03 09:28:29;;;;;;;118.35;57.60;;;;;;;3.64;73.56;96790.31;1808058;77;27572;-83
2021/01/03 09:31:24;;;;;;;114.32;58.95;;;;;;;3.68;73.51;96783.61;1796678;77;25746;-83
2021/01/03 09:34:17;;;;;;;114.92;57.20;;;;;;;3.72;73.55;96775.56;1791296;78;25320;-83
2021/01/03 09:37:13;;;;;;;110.03;54.33;;;;;;;3.69;73.36;96771.92;1791592;78;26147;-83
2021/01/03 09:40:08;;;;;;;110.45;54.60;;;;;;;3.77;73.48;96774.99;1793216;78;25741;-83
2021/01/03 09:43:01;;;;;;;98.75;50.43;;;;;;;3.84;73.16;96761.25;1788030;78;27501;-82
2021/01/03 09:45:40;;;;;;;93.33;48.83;;;;;;;3.91;73.21;96761.64;1794831;78;25777;-83
2021/01/03 09:48:09;;;;;;;93.87;46.58;;;;;;;4.12;73.23;96764.88;1788797;78;25708;-83
2021/01/03 09:50:46;;;;;;;90.75;46.88;;;;;;;4.28;73.06;96767.86;1787046;78;25678;-82
2021/01/03 09:53:26;;;;;;;103.20;52.03;;;;;;;4.57;72.99;96774.48;1790999;78;25841;-82
2021/01/03 09:56:00;;;;;;;104.35;54.15;;;;;;;4.72;72.70;96770.39;1790881;78;26845;-82
2021/01/03 09:58:41;;;;;;;108.52;57.35;;;;;;;4.76;72.29;96765.00;1798733;78;25874;-82
2021/01/03 10:01:31;;;;;;;127.95;66.25;;;;;;;4.66;72.03;96753.28;1791293;77;25853;-82
2021/01/03 10:04:25;;;;;;;122.02;64.05;;;;;;;4.56;72.10;96755.45;1800580;78;25916;-82
2021/01/03 10:07:09;;;;;;;114.65;59.93;;;;;;;4.56;72.15;96751.94;1799575;77;25741;-82
2021/01/03 10:09:37;;;;;;;106.63;55.78;;;;;;;4.62;72.20;96753.33;1795478;78;27478;-83
2021/01/03 10:12:27;;;;;;;117.33;61.13;;;;;;;4.71;71.93;96748.69;1807005;78;25749;-82
2021/01/03 10:15:23;;;;;;;113.97;56.77;;;;;;;4.71;72.05;96744.16;1809482;77;25764;-82
2021/01/03 10:18:01;;;;;;;166.60;83.33;;;;;;;4.77;71.84;96755.13;1805333;78;25782;-83
2021/01/03 10:20:51;;;;;;;165.25;82.78;;;;;;;4.79;71.68;96763.28;1797316;78;25799;-83
2021/01/03 10:23:36;;;;;;;161.20;85.55;;;;;;;4.77;71.45;96763.15;1803942;78;29138;-83
2021/01/03 10:26:08;;;;;;;177.00;92.60;;;;;;;4.64;71.23;96753.14;1798111;78;25701;-83
2021/01/03 10:28:36;;;;;;;155.20;81.02;;;;;;;4.55;71.49;96765.81;1734716;81;25711;-84
2021/01/03 10:31:03;;;;;;;157.52;80.85;;;;;;;4.49;71.47;96755.03;1741837;80;26394;-83
2021/01/03 10:33:32;;;;;;;149.93;80.12;;;;;;;4.53;71.57;96746.97;1757766;80;25740;-83
2021/01/03 10:35:59;;;;;;;149.15;79.53;;;;;;;4.54;71.50;96741.94;1754662;80;27489;-83
2021/01/03 10:38:26;;;;;;;152.38;79.07;;;;;;;4.59;71.66;96734.16;1726691;81;26291;-83
2021/01/03 10:40:54;;;;;;;152.17;81.78;;;;;;;4.65;71.67;96730.75;1753772;80;25727;-83
2021/01/03 10:43:21;;;;;;;150.00;80.47;;;;;;;4.67;71.77;96736.73;1767743;80;26133;-83
2021/01/03 10:45:49;;;;;;;151.70;78.22;;;;;;;4.69;71.75;96735.53;1757653;80;25756;-83
2021/01/03 10:48:16;;;;;;;151.37;77.90;;;;;;;4.72;71.61;96730.29;1757711;80;28480;-83
2021/01/03 10:50:44;;;;;;;148.55;76.57;;;;;;;4.75;71.53;96725.08;1763894;80;25803;-82
2021/01/03 10:53:11;;;;;;;132.72;70.87;;;;;;;4.73;71.52;96723.09;1762298;80;25790;-83
2021/01/03 10:55:38;;;;;;;147.05;75.55;;;;;;;4.77;71.58;96719.86;1764048;80;26343;-83
2021/01/03 10:58:06;;;;;;;151.37;76.92;;;;;;;4.81;71.32;96717.64;1739400;81;25710;-83
2021/01/03 11:00:33;;;;;;;133.12;73.40;;;;;;;4.79;71.16;96716.49;1736674;81;27505;-83
2021/01/03 11:03:01;;;;;;;122.45;65.52;;;;;;;4.79;71.13;96707.64;1731879;81;25836;-83
2021/01/03 11:05:28;;;;;;;138.72;71.60;;;;;;;4.77;70.95;96713.69;1731988;81;25721;-83
2021/01/03 11:07:57;;;;;;;129.90;69.70;;;;;;;4.71;70.95;96719.27;1734890;80;25752;-83
2021/01/03 11:10:24;;;;;;;130.82;68.45;;;;;;;4.69;70.91;96715.48;1746348;81;25819;-83
2021/01/03 11:12:52;;;;;;;133.80;68.83;;;;;;;4.64;70.94;96709.87;1728899;81;27552;-83
2021/01/03 11:15:19;;;;;;;137.15;70.55;;;;;;;4.61;71.17;96704.89;1728865;81;25735;-84
2021/01/03 11:17:46;;;;;;;148.55;76.10;;;;;;;4.62;71.11;96709.73;1728872;81;25767;-83
2021/01/03 11:20:14;;;;;;;154.38;76.07;;;;;;;4.64;71.05;96707.20;1730957;81;25835;-83
2021/01/03 11:22:42;;;;;;;150.05;76.42;;;;;;;4.62;70.72;96706.55;1731307;81;26475;-83
2021/01/03 11:25:11;;;;;;;145.57;74.87;;;;;;;4.57;70.94;96698.81;1730250;81;27499;-83
2021/01/03 11:27:39;;;;;;;150.38;76.15;;;;;;;4.59;71.09;96712.27;1732798;81;25751;-83
2021/01/03 11:30:09;;;;;;;139.22;72.00;;;;;;;4.64;71.02;96715.22;1730709;81;25793;-83
2021/01/03 11:32:37;;;;;;;144.62;72.80;;;;;;;4.67;70.94;96718.85;1733738;81;25637;-85
2021/01/03 11:35:06;;;;;;;156.37;77.42;;;;;;;4.73;70.92;96719.09;1735524;80;25886;-83
2021/01/03 11:37:33;;;;;;;165.50;86.63;;;;;;;4.78;70.71;96724.70;1759468;80;26903;-83
2021/01/03 11:40:01;;;;;;;164.22;86.70;;;;;;;4.83;70.66;96724.97;1752981;81;26107;-83
2021/01/03 11:42:35;;;;;;;183.10;92.45;;;;;;;4.88;70.63;96725.20;1742944;81;25775;-83
2021/01/03 11:45:06;;;;;;;174.97;92.47;;;;;;;4.85;70.53;96720.23;1742854;81;25797;-83
2021/01/03 11:47:33;;;;;;;188.42;97.55;;;;;;;4.79;70.77;96725.02;1731139;81;25794;-83
2021/01/03 11:50:01;;;;;;;206.65;105.72;;;;;;;4.80;70.92;96731.52;1730831;81;27714;-83
2021/01/03 11:52:31;;;;;;;218.22;109.50;;;;;;;4.79;70.89;96738.39;1724739;81;25713;-83
2021/01/03 11:54:59;;;;;;;217.37;108.12;;;;;;;4.82;70.88;96738.02;1734383;81;25749;-83